createdAt,value
2023-07-25T00:02:02.314Z,2.19
2023-07-25T00:04:29.021Z,2.38
2023-07-25T00:06:55.802Z,2.57
2023-07-25T00:09:22.492Z,2.53
2023-07-25T00:11:49.231Z,2.40
2023-07-25T00:14:15.925Z,2.46
2023-07-25T00:16:44.000Z,2.52
2023-07-25T00:19:10.706Z,2.55
2023-07-25T00:21:37.426Z,2.51
2023-07-25T00:24:04.743Z,2.48
2023-07-25T00:26:31.868Z,2.77
2023-07-25T00:28:58.629Z,2.53
2023-07-25T00:31:25.415Z,2.72
2023-07-25T00:33:53.487Z,2.79
2023-07-25T00:36:20.242Z,2.56
2023-07-25T00:38:46.965Z,2.69
2023-07-25T00:41:13.758Z,2.75
2023-07-25T00:43:40.544Z,2.84
2023-07-25T00:46:07.495Z,3.03
2023-07-25T00:48:34.270Z,3.07
2023-07-25T00:51:03.090Z,2.86
2023-07-25T00:53:29.845Z,2.74
2023-07-25T00:55:56.569Z,3.03
2023-07-25T00:58:23.364Z,2.93
2023-07-25T01:00:50.091Z,3.32
2023-07-25T01:03:16.923Z,3.49
2023-07-25T01:05:45.443Z,3.61
2023-07-25T01:08:13.510Z,3.42
2023-07-25T01:10:40.277Z,3.62
2023-07-25T01:13:07.030Z,3.17
2023-07-25T01:15:33.814Z,3.52
2023-07-25T01:18:00.666Z,3.48
2023-07-25T01:20:27.444Z,3.33
2023-07-25T01:22:54.319Z,3.28
2023-07-25T01:25:22.345Z,3.37
2023-07-25T01:27:49.040Z,3.36
2023-07-25T01:30:15.769Z,3.25
2023-07-25T01:32:42.523Z,3.07
2023-07-25T01:35:09.296Z,2.79
2023-07-25T01:37:35.998Z,2.94
2023-07-25T01:40:02.799Z,2.69
2023-07-25T01:42:30.905Z,2.51
2023-07-25T01:44:57.834Z,2.79
2023-07-25T01:47:24.848Z,2.58
2023-07-25T01:49:51.617Z,2.65
2023-07-25T01:52:18.391Z,2.73
2023-07-25T01:54:45.093Z,2.63
2023-07-25T01:57:12.230Z,2.72
2023-07-25T01:59:40.377Z,2.70
2023-07-25T02:02:07.085Z,2.73
2023-07-25T02:04:33.850Z,2.68
2023-07-25T02:07:00.555Z,3.28
2023-07-25T02:09:27.292Z,2.99
2023-07-25T02:11:54.199Z,2.87
2023-07-25T02:14:20.958Z,2.94
2023-07-25T02:16:49.275Z,2.94
2023-07-25T02:19:16.094Z,2.90
2023-07-25T02:21:42.825Z,2.79
2023-07-25T02:24:09.538Z,2.93
2023-07-25T02:26:36.293Z,2.71
2023-07-25T02:29:02.999Z,2.77
2023-07-25T02:31:30.245Z,2.53
2023-07-25T02:33:58.682Z,2.54
2023-07-25T02:36:25.525Z,2.57
2023-07-25T02:38:52.205Z,2.52
2023-07-25T02:41:18.932Z,2.88
2023-07-25T02:43:45.883Z,2.78
2023-07-25T02:46:12.612Z,2.73
2023-07-25T02:48:40.636Z,2.60
2023-07-25T02:51:10.612Z,2.81
2023-07-25T02:53:37.321Z,3.11
2023-07-25T02:56:04.469Z,2.75
2023-07-25T02:58:31.181Z,2.79
2023-07-25T03:00:57.968Z,2.69
2023-07-25T03:03:24.786Z,2.56
2023-07-25T03:05:51.532Z,2.79
2023-07-25T03:08:19.597Z,2.60
2023-07-25T03:10:46.344Z,2.26
2023-07-25T03:13:13.172Z,2.32
2023-07-25T03:15:39.914Z,2.05
2023-07-25T03:18:06.677Z,2.24
2023-07-25T03:20:33.413Z,2.04
2023-07-25T03:23:00.162Z,2.08
2023-07-25T03:25:28.219Z,2.00
2023-07-25T03:27:54.948Z,2.02
2023-07-25T03:30:21.679Z,1.97
2023-07-25T03:32:48.389Z,2.19
2023-07-25T03:35:15.242Z,1.98
2023-07-25T03:37:42.090Z,2.11
2023-07-25T03:40:09.245Z,2.00
2023-07-25T03:42:37.413Z,2.15
2023-07-25T03:45:04.600Z,2.24
2023-07-25T03:47:31.469Z,2.03
2023-07-25T03:49:58.222Z,2.14
2023-07-25T03:52:24.956Z,2.26
2023-07-25T03:54:51.668Z,2.36
2023-07-25T03:57:18.358Z,2.08
2023-07-25T03:59:46.437Z,2.14
2023-07-25T04:02:13.185Z,2.20
2023-07-25T04:04:40.017Z,2.16
2023-07-25T04:07:06.857Z,2.31
2023-07-25T04:09:33.586Z,2.37
2023-07-25T04:12:00.407Z,2.42
2023-07-25T04:14:27.161Z,2.36
2023-07-25T04:16:55.219Z,2.42
2023-07-25T04:19:22.094Z,2.47
2023-07-25T04:21:48.893Z,2.54
2023-07-25T04:24:15.693Z,2.20
2023-07-25T04:26:42.440Z,2.25
2023-07-25T04:29:09.119Z,2.47
2023-07-25T04:31:35.863Z,2.28
2023-07-25T04:34:03.920Z,2.34
2023-07-25T04:36:30.772Z,2.19
2023-07-25T04:38:57.666Z,2.40
2023-07-25T04:41:24.441Z,2.32
2023-07-25T04:43:51.165Z,2.29
2023-07-25T04:46:17.923Z,2.42
2023-07-25T04:48:44.804Z,2.40
2023-07-25T04:51:12.924Z,2.34
2023-07-25T04:53:39.656Z,2.28
2023-07-25T04:56:06.519Z,2.48
2023-07-25T04:58:33.253Z,2.33
2023-07-25T05:01:00.000Z,2.44
2023-07-25T05:03:26.865Z,2.60
2023-07-25T05:05:55.018Z,2.68
2023-07-25T05:08:23.085Z,2.23
2023-07-25T05:10:51.006Z,2.44
2023-07-25T05:13:17.715Z,2.34
2023-07-25T05:15:44.445Z,2.16
2023-07-25T05:18:11.132Z,2.32
2023-07-25T05:20:37.931Z,2.00
2023-07-25T05:23:04.634Z,2.04
2023-07-25T05:25:32.777Z,2.06
2023-07-25T05:27:59.481Z,1.90
2023-07-25T05:30:26.210Z,1.97
2023-07-25T05:32:52.953Z,2.14
2023-07-25T05:35:19.694Z,1.73
2023-07-25T05:37:46.383Z,1.61
2023-07-25T05:40:13.352Z,1.30
2023-07-25T05:42:41.393Z,1.37
2023-07-25T05:45:08.655Z,1.46
2023-07-25T05:47:35.408Z,1.33
2023-07-25T05:50:02.228Z,1.38
2023-07-25T05:52:28.903Z,1.23
2023-07-25T05:54:55.686Z,1.37
2023-07-25T05:57:22.388Z,1.46
2023-07-25T05:59:50.460Z,1.76
2023-07-25T06:02:17.143Z,1.87
2023-07-25T06:04:43.896Z,2.00
2023-07-25T06:07:10.585Z,1.77
2023-07-25T06:09:37.314Z,1.74
2023-07-25T06:12:04.532Z,1.79
2023-07-25T06:14:31.258Z,1.77
2023-07-25T06:16:59.409Z,1.68
2023-07-25T06:19:26.137Z,1.92
2023-07-25T06:21:52.896Z,1.80
2023-07-25T06:24:19.800Z,1.91
2023-07-25T06:26:46.554Z,2.04
2023-07-25T06:29:13.256Z,1.87
2023-07-25T06:31:39.949Z,1.89
2023-07-25T06:34:07.975Z,2.07
2023-07-25T06:36:34.763Z,1.92
2023-07-25T06:39:01.480Z,1.85
2023-07-25T06:41:28.177Z,1.92
2023-07-25T06:43:59.764Z,1.77
2023-07-25T06:46:26.513Z,1.85
2023-07-25T06:48:53.021Z,1.91
2023-07-25T06:51:21.375Z,2.05
2023-07-25T06:53:48.082Z,1.79
2023-07-25T06:56:14.768Z,1.48
2023-07-25T06:58:41.451Z,1.43
2023-07-25T07:01:08.185Z,1.40
2023-07-25T07:03:34.928Z,1.24
2023-07-25T07:06:01.740Z,1.23
2023-07-25T07:08:29.885Z,1.33
2023-07-25T07:10:56.600Z,1.40
2023-07-25T07:13:23.494Z,1.40
2023-07-25T07:15:50.283Z,1.33
2023-07-25T07:18:17.076Z,1.30
2023-07-25T07:20:46.596Z,1.43
2023-07-25T07:23:13.266Z,1.43
2023-07-25T07:25:41.365Z,1.70
2023-07-25T07:28:08.058Z,1.64
2023-07-25T07:30:34.843Z,1.81
2023-07-25T07:33:01.585Z,1.81
2023-07-25T07:35:28.331Z,1.72
2023-07-25T07:37:55.011Z,1.92
2023-07-25T07:40:21.686Z,2.03
2023-07-25T07:42:49.736Z,1.81
2023-07-25T07:45:16.611Z,2.00
2023-07-25T07:47:43.320Z,1.85
2023-07-25T07:50:10.486Z,1.97
2023-07-25T07:52:44.024Z,2.00
2023-07-25T07:55:11.066Z,2.02
2023-07-25T07:57:41.480Z,1.60
2023-07-25T08:00:10.657Z,1.81
2023-07-25T08:02:40.335Z,1.85
2023-07-25T08:05:07.726Z,1.79
2023-07-25T08:07:34.513Z,1.99
2023-07-25T08:10:01.413Z,1.75
2023-07-25T08:12:28.150Z,2.06
2023-07-25T08:14:54.830Z,1.97
2023-07-25T08:17:22.975Z,1.85
2023-07-25T08:19:49.700Z,2.03
2023-07-25T08:22:16.430Z,2.58
2023-07-25T08:24:43.735Z,2.78
2023-07-25T08:27:10.431Z,2.45
2023-07-25T08:29:39.725Z,2.58
2023-07-25T08:32:07.809Z,2.13
2023-07-25T08:34:35.945Z,1.91
2023-07-25T08:37:02.707Z,1.90
2023-07-25T08:39:29.572Z,1.96
2023-07-25T08:41:56.410Z,2.27
2023-07-25T08:44:23.337Z,1.95
2023-07-25T08:46:51.553Z,1.95
2023-07-25T08:49:18.650Z,1.86
2023-07-25T08:51:46.715Z,1.87
2023-07-25T08:54:17.397Z,1.88
2023-07-25T08:56:45.033Z,1.95
2023-07-25T08:59:11.755Z,2.04
2023-07-25T09:01:38.530Z,1.94
2023-07-25T09:04:05.358Z,2.02
2023-07-25T09:06:32.087Z,1.93
2023-07-25T09:09:00.124Z,2.09
2023-07-25T09:11:26.885Z,2.27
2023-07-25T09:13:53.576Z,1.85
2023-07-25T09:16:20.329Z,1.77
2023-07-25T09:18:47.082Z,1.66
2023-07-25T09:21:14.203Z,1.91
2023-07-25T09:23:40.908Z,2.00
2023-07-25T09:26:09.518Z,2.15
2023-07-25T09:28:36.249Z,1.89
2023-07-25T09:31:02.975Z,1.87
2023-07-25T09:33:30.058Z,1.50
2023-07-25T09:35:57.667Z,1.61
2023-07-25T09:38:24.380Z,1.51
2023-07-25T09:40:51.107Z,1.32
2023-07-25T09:43:25.700Z,1.35
2023-07-25T09:45:52.643Z,1.44
2023-07-25T09:48:19.431Z,1.52
2023-07-25T09:50:46.196Z,1.49
2023-07-25T09:53:13.153Z,1.50
2023-07-25T09:55:39.966Z,1.50
2023-07-25T09:58:06.690Z,1.04
2023-07-25T10:00:34.734Z,0.77
2023-07-25T10:03:01.527Z,0.60
2023-07-25T10:05:28.471Z,0.61
2023-07-25T10:07:56.943Z,0.51
2023-07-25T10:10:25.232Z,0.54
2023-07-25T10:12:52.016Z,0.54
2023-07-25T10:15:18.688Z,0.51
2023-07-25T10:17:47.047Z,0.43
2023-07-25T10:20:20.288Z,0.60
2023-07-25T10:22:46.989Z,0.65
2023-07-25T10:25:19.376Z,0.74
2023-07-25T10:27:46.159Z,0.77
2023-07-25T10:30:22.940Z,0.83
2023-07-25T10:32:51.393Z,0.78
2023-07-25T10:35:18.090Z,0.73
2023-07-25T10:37:45.168Z,0.70
2023-07-25T10:40:13.786Z,0.88
2023-07-25T10:42:59.818Z,0.98
2023-07-25T10:45:50.857Z,1.05
2023-07-25T10:48:35.657Z,1.12
2023-07-25T10:51:03.928Z,0.97
2023-07-25T10:53:30.623Z,0.88
2023-07-25T10:56:10.838Z,1.09
2023-07-25T10:58:38.217Z,1.02
2023-07-25T11:01:04.929Z,0.92
2023-07-25T11:03:33.591Z,0.74
2023-07-25T11:06:37.590Z,0.86
2023-07-25T11:09:07.306Z,0.69
2023-07-25T11:11:34.121Z,0.66
2023-07-25T11:14:02.608Z,0.70
2023-07-25T11:16:29.632Z,0.93
2023-07-25T11:18:57.807Z,0.69
2023-07-25T11:21:24.593Z,0.67
2023-07-25T11:23:51.435Z,0.75
2023-07-25T11:26:18.140Z,0.75
2023-07-25T11:28:44.848Z,0.75
2023-07-25T11:31:11.586Z,0.73
2023-07-25T11:33:38.471Z,0.74
2023-07-25T11:36:06.868Z,0.87
2023-07-25T11:38:35.666Z,0.78
2023-07-25T11:41:02.401Z,0.87
2023-07-25T11:43:29.216Z,0.71
2023-07-25T11:45:55.944Z,0.74
2023-07-25T11:48:22.693Z,0.65
2023-07-25T11:50:49.788Z,0.77
2023-07-25T11:53:17.893Z,0.86
2023-07-25T11:55:46.567Z,0.84
2023-07-25T11:58:16.414Z,0.76
2023-07-25T12:00:43.297Z,0.82
2023-07-25T12:03:17.038Z,0.70
2023-07-25T12:05:43.791Z,0.71
2023-07-25T12:08:10.471Z,0.76
2023-07-25T12:10:38.592Z,0.82
2023-07-25T12:13:05.348Z,0.92
2023-07-25T12:15:44.611Z,0.88
2023-07-25T12:18:14.726Z,0.90
2023-07-25T12:20:52.585Z,1.05
2023-07-25T12:23:28.150Z,1.02
2023-07-25T12:25:56.412Z,1.04
2023-07-25T12:28:23.817Z,0.62
2023-07-25T12:30:50.553Z,0.70
2023-07-25T12:33:17.362Z,0.47
2023-07-25T12:35:44.118Z,0.42
2023-07-25T12:38:10.792Z,0.50
2023-07-25T12:40:37.546Z,0.63
2023-07-25T12:43:05.622Z,0.77
2023-07-25T12:45:32.383Z,0.65
2023-07-25T12:47:59.092Z,0.81
2023-07-25T12:50:25.926Z,0.71
2023-07-25T12:52:52.612Z,0.85
2023-07-25T12:55:19.600Z,0.93
2023-07-25T12:57:46.290Z,0.81
2023-07-25T13:00:15.696Z,0.95
2023-07-25T13:02:42.699Z,0.95
2023-07-25T13:05:09.694Z,0.92
2023-07-25T13:07:36.492Z,1.05
2023-07-25T13:10:03.523Z,0.98
2023-07-25T13:12:30.237Z,0.99
2023-07-25T13:14:56.945Z,0.94
2023-07-25T13:17:24.984Z,0.87
2023-07-25T13:19:51.743Z,0.86
2023-07-25T13:22:18.454Z,0.81
2023-07-25T13:24:45.203Z,1.01
2023-07-25T13:27:11.964Z,0.85
2023-07-25T13:29:38.666Z,0.83
2023-07-25T13:32:06.398Z,0.88
2023-07-25T13:34:34.487Z,0.99
2023-07-25T13:37:01.253Z,1.06
2023-07-25T13:39:27.947Z,0.97
2023-07-25T13:41:54.698Z,1.06
2023-07-25T13:44:21.516Z,1.16
2023-07-25T13:46:48.279Z,1.27
2023-07-25T13:49:15.083Z,1.03
2023-07-25T13:51:43.161Z,1.32
2023-07-25T13:54:09.840Z,1.36
2023-07-25T13:56:38.697Z,1.27
2023-07-25T13:59:05.546Z,1.38
2023-07-25T14:01:32.509Z,0.94
2023-07-25T14:03:59.443Z,0.96
2023-07-25T14:06:26.156Z,1.33
2023-07-25T14:08:56.632Z,0.98
2023-07-25T14:11:23.889Z,1.26
2023-07-25T14:13:50.856Z,1.26
2023-07-25T14:16:17.680Z,1.14
2023-07-25T14:18:44.491Z,1.17
2023-07-25T14:21:11.312Z,1.20
2023-07-25T14:23:38.028Z,1.07
2023-07-25T14:26:06.319Z,1.38
2023-07-25T14:28:33.014Z,1.05
2023-07-25T14:30:59.803Z,1.06
2023-07-25T14:33:26.567Z,1.08
2023-07-25T14:35:53.373Z,1.23
2023-07-25T14:38:20.164Z,1.24
2023-07-25T14:40:46.930Z,1.04
2023-07-25T14:43:14.937Z,1.00
2023-07-25T14:45:41.680Z,0.96
2023-07-25T14:48:08.629Z,0.96
2023-07-25T14:50:35.712Z,1.05
2023-07-25T14:53:02.454Z,1.09
2023-07-25T14:55:29.219Z,0.95
2023-07-25T14:57:55.912Z,1.06
2023-07-25T15:00:24.028Z,1.00
2023-07-25T15:02:50.796Z,0.94
2023-07-25T15:05:17.544Z,0.95
2023-07-25T15:07:44.258Z,1.14
2023-07-25T15:10:11.103Z,1.02
2023-07-25T15:12:37.851Z,1.01
2023-07-25T15:15:06.796Z,0.89
2023-07-25T15:17:35.007Z,1.18
2023-07-25T15:20:03.016Z,1.12
2023-07-25T15:22:29.843Z,1.11
2023-07-25T15:24:56.630Z,1.10
2023-07-25T15:27:23.500Z,1.18
2023-07-25T15:29:50.434Z,0.99
2023-07-25T15:32:17.173Z,1.38
2023-07-25T15:34:45.293Z,1.36
2023-07-25T15:37:12.084Z,1.49
2023-07-25T15:39:38.797Z,1.08
2023-07-25T15:42:06.041Z,1.08
2023-07-25T15:44:33.076Z,1.04
2023-07-25T15:47:00.812Z,1.21
2023-07-25T15:49:27.546Z,1.07
2023-07-25T15:51:56.239Z,0.90
2023-07-25T15:54:23.173Z,1.01
2023-07-25T15:56:49.894Z,1.01
2023-07-25T15:59:16.812Z,0.94
2023-07-25T16:01:43.574Z,0.82
2023-07-25T16:04:10.257Z,0.98
2023-07-25T16:06:36.993Z,1.06
2023-07-25T16:09:05.125Z,0.98
2023-07-25T16:11:32.051Z,0.80
2023-07-25T16:13:58.888Z,0.86
2023-07-25T16:16:25.649Z,0.84
2023-07-25T16:18:52.328Z,0.82
2023-07-25T16:21:19.045Z,0.80
2023-07-25T16:23:45.767Z,0.71
2023-07-25T16:26:13.820Z,0.69
2023-07-25T16:28:40.502Z,0.87
2023-07-25T16:31:29.085Z,0.92
2023-07-25T16:33:53.909Z,0.88
2023-07-25T16:36:20.625Z,0.97
2023-07-25T16:38:47.322Z,0.93
2023-07-25T16:41:15.390Z,0.80
2023-07-25T16:43:42.142Z,0.85
2023-07-25T16:46:08.827Z,0.48
2023-07-25T16:48:35.558Z,0.47
2023-07-25T16:51:02.263Z,0.52
2023-07-25T16:53:28.955Z,0.67
2023-07-25T16:55:55.666Z,0.70
2023-07-25T16:58:23.832Z,0.75
2023-07-25T17:00:50.692Z,0.66
2023-07-25T17:03:17.493Z,0.55
2023-07-25T17:05:44.457Z,0.59
2023-07-25T17:08:11.202Z,0.52
2023-07-25T17:10:37.926Z,0.49
2023-07-25T17:13:04.582Z,0.39
2023-07-25T17:15:32.626Z,0.51
2023-07-25T17:17:59.338Z,0.44
2023-07-25T17:20:26.078Z,0.51
2023-07-25T17:22:52.819Z,0.48
2023-07-25T17:25:19.560Z,0.48
2023-07-25T17:27:46.249Z,0.46
2023-07-25T17:30:12.975Z,0.40
2023-07-25T17:32:41.101Z,0.39
2023-07-25T17:35:09.655Z,0.42
2023-07-25T17:37:37.951Z,0.40
2023-07-25T17:40:06.338Z,0.46
2023-07-25T17:42:33.131Z,0.49
2023-07-25T17:44:59.819Z,0.57
2023-07-25T17:47:26.520Z,0.56
2023-07-25T17:49:54.610Z,0.56
2023-07-25T17:52:21.325Z,0.51
2023-07-25T17:54:48.008Z,0.43
2023-07-25T17:57:14.717Z,0.46
2023-07-25T17:59:41.401Z,0.48
2023-07-25T18:02:08.135Z,0.44
2023-07-25T18:04:34.797Z,0.41
2023-07-25T18:07:02.902Z,0.38
2023-07-25T18:09:29.555Z,0.43
2023-07-25T18:11:57.578Z,0.57
2023-07-25T18:14:24.266Z,0.50
2023-07-25T18:16:50.930Z,0.55
2023-07-25T18:19:17.619Z,0.51
2023-07-25T18:21:44.299Z,0.51
2023-07-25T18:24:12.358Z,0.66
2023-07-25T18:26:39.330Z,0.52
2023-07-25T18:29:06.080Z,0.58
2023-07-25T18:31:32.998Z,0.56
2023-07-25T18:33:59.937Z,0.62
2023-07-25T18:36:26.726Z,0.69
2023-07-25T18:38:53.500Z,0.78
2023-07-25T18:41:21.514Z,0.80
2023-07-25T18:43:48.194Z,0.64
2023-07-25T18:46:14.924Z,0.64
2023-07-25T18:48:41.680Z,0.70
2023-07-25T18:51:08.390Z,0.72
2023-07-25T18:53:35.081Z,0.94
2023-07-25T18:56:01.776Z,1.04
2023-07-25T18:58:29.826Z,1.19
2023-07-25T19:00:56.556Z,1.07
2023-07-25T19:03:23.370Z,1.17
2023-07-25T19:05:51.785Z,1.11
2023-07-25T19:08:18.545Z,0.84
2023-07-25T19:10:45.209Z,0.71
2023-07-25T19:13:11.898Z,0.81
2023-07-25T19:15:39.934Z,1.21
2023-07-25T19:18:06.736Z,1.03
2023-07-25T19:20:33.449Z,0.90
2023-07-25T19:23:07.862Z,1.07
2023-07-25T19:25:42.179Z,0.98
2023-07-25T19:28:08.848Z,0.81
2023-07-25T19:30:37.495Z,0.80
2023-07-25T19:33:05.583Z,0.96
2023-07-25T19:35:32.299Z,1.07
2023-07-25T19:37:58.980Z,1.02
2023-07-25T19:40:25.709Z,0.99
2023-07-25T19:42:52.415Z,0.79
2023-07-25T19:45:19.234Z,0.83
2023-07-25T19:47:45.940Z,0.97
2023-07-25T19:50:14.056Z,0.87
2023-07-25T19:52:40.761Z,1.09
2023-07-25T19:55:08.289Z,1.10
2023-07-25T19:57:35.125Z,1.01
2023-07-25T20:00:01.849Z,0.99
2023-07-25T20:02:28.588Z,0.85
2023-07-25T20:04:55.374Z,0.79
2023-07-25T20:07:23.373Z,0.77
2023-07-25T20:09:50.072Z,0.80
2023-07-25T20:12:16.771Z,0.74
2023-07-25T20:14:43.473Z,0.82
2023-07-25T20:17:10.170Z,0.90
2023-07-25T20:19:36.889Z,0.92
2023-07-25T20:22:03.650Z,0.85
2023-07-25T20:24:31.736Z,0.99
2023-07-25T20:26:58.478Z,0.93
2023-07-25T20:29:25.251Z,0.91
2023-07-25T20:31:51.979Z,1.01
2023-07-25T20:34:18.646Z,0.82
2023-07-25T20:36:45.398Z,0.93
2023-07-25T20:39:12.099Z,0.94
2023-07-25T20:41:40.147Z,0.97
2023-07-25T20:44:06.852Z,0.84
2023-07-25T20:46:33.952Z,0.98
2023-07-25T20:49:00.834Z,0.97
2023-07-25T20:51:27.579Z,0.83
2023-07-25T20:53:54.241Z,0.83
2023-07-25T20:56:20.929Z,0.95
2023-07-25T20:58:49.083Z,0.85
2023-07-25T21:01:15.819Z,0.92
2023-07-25T21:03:42.656Z,0.85
2023-07-25T21:06:09.379Z,0.83
2023-07-25T21:08:36.126Z,0.83
2023-07-25T21:11:02.810Z,0.96
2023-07-25T21:13:29.520Z,1.12
2023-07-25T21:15:57.582Z,0.81
2023-07-25T21:18:24.377Z,0.87
2023-07-25T21:20:51.149Z,0.90
2023-07-25T21:23:17.837Z,0.74
2023-07-25T21:25:44.517Z,0.80
2023-07-25T21:28:11.224Z,0.91
2023-07-25T21:30:37.909Z,0.96
2023-07-25T21:33:06.014Z,0.97
2023-07-25T21:35:32.780Z,0.87
2023-07-25T21:37:59.453Z,1.00
2023-07-25T21:40:26.337Z,0.98
2023-07-25T21:42:53.049Z,0.90
2023-07-25T21:45:19.831Z,0.89
2023-07-25T21:47:46.552Z,1.02
2023-07-25T21:50:14.585Z,1.01
2023-07-25T21:52:41.305Z,0.83
2023-07-25T21:55:08.381Z,0.81
2023-07-25T21:57:35.053Z,1.01
2023-07-25T22:00:02.049Z,1.00
2023-07-25T22:02:38.910Z,0.94
2023-07-25T22:05:06.777Z,0.87
2023-07-25T22:07:34.801Z,0.92
2023-07-25T22:10:01.534Z,1.03
2023-07-25T22:12:28.270Z,1.04
2023-07-25T22:14:54.967Z,1.03
2023-07-25T22:17:21.747Z,0.96
2023-07-25T22:19:48.484Z,0.84
2023-07-25T22:22:15.198Z,0.92
2023-07-25T22:24:43.255Z,0.88
2023-07-25T22:27:09.980Z,0.89
2023-07-25T22:29:36.903Z,0.81
2023-07-25T22:32:04.129Z,0.97
2023-07-25T22:34:30.845Z,0.87
2023-07-25T22:36:57.577Z,0.74
2023-07-25T22:39:24.253Z,0.77
2023-07-25T22:41:52.417Z,0.78
2023-07-25T22:44:19.102Z,0.92
2023-07-25T22:46:45.786Z,0.84
2023-07-25T22:49:12.453Z,1.06
2023-07-25T22:51:39.294Z,0.99
2023-07-25T22:54:05.977Z,1.05
2023-07-25T22:56:33.006Z,0.92
2023-07-25T22:59:02.926Z,0.98
2023-07-25T23:01:31.899Z,0.89
2023-07-25T23:03:58.615Z,0.95
2023-07-25T23:06:25.295Z,0.94
2023-07-25T23:08:52.011Z,0.95
2023-07-25T23:11:18.693Z,1.05
2023-07-25T23:13:45.416Z,0.93
2023-07-25T23:16:13.535Z,0.99
2023-07-25T23:18:40.271Z,1.03
2023-07-25T23:21:06.980Z,0.94
2023-07-25T23:23:33.682Z,0.96
2023-07-25T23:26:00.402Z,1.02
2023-07-25T23:28:27.139Z,1.12
2023-07-25T23:30:53.931Z,1.13
2023-07-25T23:33:23.134Z,1.36
2023-07-25T23:35:49.827Z,1.38
2023-07-25T23:38:16.577Z,1.26
2023-07-25T23:40:43.260Z,1.26
2023-07-25T23:43:09.977Z,1.03
2023-07-25T23:45:36.639Z,0.95
2023-07-25T23:48:03.667Z,1.13
2023-07-25T23:50:31.836Z,0.99
2023-07-25T23:52:58.571Z,1.05
2023-07-25T23:55:26.341Z,0.90
2023-07-25T23:57:53.003Z,0.99
